Etusivu
METAR-TAF:

METAR-TAF

Lentoasemat :

Ciudad Guayana, Venezuela

Leveyspiiri: 08-18N, Pituuspiiri: 062-44W, korkeus merenpinnasta: 144 m

METAR: puuttuu

Aika: 13:38 (17:38 UTC)

Sääennuste

Tämä raportti tehtiin 7 tuntia ja 38 minuuttia sitten, kello 10.00 UTC
Ennuste voimassa 13. päivästä klo 12 UTC - 14. päivään klo 12 UTC
Tuuli 5 kn koillisesta
Näkyvyys 10 km tai enemmän
Hajanaisia pilviä 2000 ft:n korkeudessa
Ajoittain
13. päivästä klo 05 UTC - 13. päivään klo 07 UTC
Tuuli 5 kn idästä
Näkyvyys 10 km tai enemmän
Hajanaisia pilviä 1600 ft:n korkeudessa
Hajonneita pilviä 1600 ft:n korkeudessa
Hajonneita pilviä 10000 ft:n korkeudessa

TAF: SVPR 131000Z 1312/1412 05005KT 9999 SCT020 TX31/1305Z TN23/1308Z TEMPO 1305/1307 08005KT 9999 SCT016 BKN016 BKN100

Säähavainnot ja -ennusteet yli 4000 lentoasemalta (METAR- ja TAF-raportit).

Käytössä olevat sääasemat on merkitty karttaan keltaisilla ja punaisilla pisteillä.

Aseta hiiri pisteen päälle nähdäksesi sääaseman nimen.

Klikkaa sitten nähdäksesi säähavainnot ja -ennusteet.

Kartan vaihtaminen: klikkaa mustalla rastilla varustettuja vihreitä pisteitä, niin voit zoomata sisään; viivalla varustettua vihreää pistettä, niin voit zoomata ulos tai vihreitä nuolia, niin pääset viereisille kartoille.


METAR-TAF: